sensor_id;sensor_type;location;lat;lon;timestamp;pressure;altitude;pressure_sealevel;temperature;humidity
76732;BME280;65656;51.130;13.658;2023-09-19T00:02:52;98480.91;;;15.26;100.00
76732;BME280;65656;51.130;13.658;2023-09-19T00:06:53;98477.94;;;15.23;100.00
76732;BME280;65656;51.130;13.658;2023-09-19T00:10:55;98493.13;;;15.07;100.00
76732;BME280;65656;51.130;13.658;2023-09-19T00:14:56;98489.41;;;14.97;100.00
76732;BME280;65656;51.130;13.658;2023-09-19T00:18:59;98491.06;;;14.98;100.00
76732;BME280;65656;51.130;13.658;2023-09-19T00:23:01;98474.72;;;15.02;100.00
76732;BME280;65656;51.130;13.658;2023-09-19T00:27:03;98454.09;;;15.13;100.00
76732;BME280;65656;51.130;13.658;2023-09-19T00:31:07;98465.75;;;15.10;100.00
76732;BME280;65656;51.130;13.658;2023-09-19T00:35:10;98462.84;;;15.01;100.00
76732;BME280;65656;51.130;13.658;2023-09-19T00:39:12;98458.19;;;15.02;100.00
76732;BME280;65656;51.130;13.658;2023-09-19T00:43:14;98451.47;;;15.22;100.00
76732;BME280;65656;51.130;13.658;2023-09-19T00:47:15;98455.53;;;15.11;100.00
76732;BME280;65656;51.130;13.658;2023-09-19T00:51:20;98448.09;;;15.25;100.00
76732;BME280;65656;51.130;13.658;2023-09-19T00:55:21;98444.94;;;15.18;100.00
76732;BME280;65656;51.130;13.658;2023-09-19T00:59:24;98443.69;;;15.24;100.00
76732;BME280;65656;51.130;13.658;2023-09-19T01:03:26;98445.31;;;15.25;100.00
76732;BME280;65656;51.130;13.658;2023-09-19T01:07:30;98454.13;;;15.27;100.00
76732;BME280;65656;51.130;13.658;2023-09-19T01:11:37;98448.91;;;15.39;100.00
76732;BME280;65656;51.130;13.658;2023-09-19T01:15:46;98467.22;;;15.35;100.00
76732;BME280;65656;51.130;13.658;2023-09-19T01:25:00;98476.63;;;15.34;100.00
76732;BME280;65656;51.130;13.658;2023-09-19T01:29:19;98472.97;;;15.52;100.00
76732;BME280;65656;51.130;13.658;2023-09-19T01:33:26;98476.59;;;15.67;100.00
76732;BME280;65656;51.130;13.658;2023-09-19T01:37:27;98475.22;;;15.50;100.00
76732;BME280;65656;51.130;13.658;2023-09-19T01:45:56;98472.81;;;15.90;100.00
76732;BME280;65656;51.130;13.658;2023-09-19T01:50:11;98481.41;;;15.75;100.00
76732;BME280;65656;51.130;13.658;2023-09-19T01:54:18;98471.16;;;15.62;100.00
76732;BME280;65656;51.130;13.658;2023-09-19T01:58:27;98478.72;;;15.70;100.00
76732;BME280;65656;51.130;13.658;2023-09-19T02:02:33;98485.69;;;15.81;100.00
76732;BME280;65656;51.130;13.658;2023-09-19T02:06:39;98477.50;;;15.76;100.00
76732;BME280;65656;51.130;13.658;2023-09-19T02:10:41;98475.16;;;15.83;100.00
76732;BME280;65656;51.130;13.658;2023-09-19T02:14:42;98495.31;;;15.97;100.00
76732;BME280;65656;51.130;13.658;2023-09-19T02:18:44;98487.31;;;16.09;100.00
76732;BME280;65656;51.130;13.658;2023-09-19T02:22:47;98482.56;;;16.24;100.00
76732;BME280;65656;51.130;13.658;2023-09-19T02:26:48;98481.97;;;16.27;100.00
76732;BME280;65656;51.130;13.658;2023-09-19T02:30:50;98489.13;;;16.28;100.00
76732;BME280;65656;51.130;13.658;2023-09-19T02:34:51;98492.63;;;16.20;100.00
76732;BME280;65656;51.130;13.658;2023-09-19T02:38:54;98509.22;;;16.20;100.00
76732;BME280;65656;51.130;13.658;2023-09-19T02:42:56;98511.66;;;16.07;100.00
76732;BME280;65656;51.130;13.658;2023-09-19T02:46:57;98508.50;;;16.00;100.00
76732;BME280;65656;51.130;13.658;2023-09-19T02:50:59;98513.53;;;15.98;100.00
76732;BME280;65656;51.130;13.658;2023-09-19T02:55:02;98518.72;;;16.13;100.00
76732;BME280;65656;51.130;13.658;2023-09-19T02:59:04;98525.34;;;16.26;100.00
76732;BME280;65656;51.130;13.658;2023-09-19T03:03:05;98520.28;;;16.20;100.00
76732;BME280;65656;51.130;13.658;2023-09-19T03:07:07;98526.63;;;16.06;100.00
76732;BME280;65656;51.130;13.658;2023-09-19T03:11:10;98532.94;;;15.93;100.00
76732;BME280;65656;51.130;13.658;2023-09-19T03:15:11;98531.94;;;15.89;100.00
76732;BME280;65656;51.130;13.658;2023-09-19T03:19:13;98540.75;;;15.91;100.00
76732;BME280;65656;51.130;13.658;2023-09-19T03:23:15;98543.81;;;16.03;100.00
76732;BME280;65656;51.130;13.658;2023-09-19T03:27:18;98552.19;;;16.26;100.00
76732;BME280;65656;51.130;13.658;2023-09-19T03:31:19;98547.28;;;16.23;100.00
76732;BME280;65656;51.130;13.658;2023-09-19T03:35:21;98543.41;;;15.96;100.00
76732;BME280;65656;51.130;13.658;2023-09-19T03:39:22;98548.91;;;15.69;100.00
76732;BME280;65656;51.130;13.658;2023-09-19T03:43:25;98563.44;;;15.74;100.00
76732;BME280;65656;51.130;13.658;2023-09-19T03:47:27;98553.81;;;15.85;100.00
76732;BME280;65656;51.130;13.658;2023-09-19T03:51:28;98560.88;;;15.78;100.00
76732;BME280;65656;51.130;13.658;2023-09-19T03:55:30;98547.59;;;15.80;100.00
76732;BME280;65656;51.130;13.658;2023-09-19T03:59:33;98552.81;;;15.81;100.00
76732;BME280;65656;51.130;13.658;2023-09-19T04:03:35;98547.06;;;15.78;100.00
76732;BME280;65656;51.130;13.658;2023-09-19T04:07:37;98549.72;;;15.69;100.00
76732;BME280;65656;51.130;13.658;2023-09-19T04:11:39;98575.72;;;15.82;100.00
76732;BME280;65656;51.130;13.658;2023-09-19T04:15:42;98569.78;;;15.75;100.00
76732;BME280;65656;51.130;13.658;2023-09-19T04:19:43;98579.34;;;15.64;100.00
76732;BME280;65656;51.130;13.658;2023-09-19T04:23:45;98569.75;;;15.61;100.00
76732;BME280;65656;51.130;13.658;2023-09-19T04:27:46;98566.22;;;15.55;100.00
76732;BME280;65656;51.130;13.658;2023-09-19T04:31:49;98584.13;;;15.58;100.00
76732;BME280;65656;51.130;13.658;2023-09-19T04:35:51;98592.38;;;15.44;100.00
76732;BME280;65656;51.130;13.658;2023-09-19T04:39:52;98607.31;;;15.43;100.00
76732;BME280;65656;51.130;13.658;2023-09-19T04:43:54;98594.44;;;15.52;100.00
76732;BME280;65656;51.130;13.658;2023-09-19T04:47:56;98599.53;;;15.45;100.00
76732;BME280;65656;51.130;13.658;2023-09-19T04:51:58;98605.91;;;15.59;100.00
76732;BME280;65656;51.130;13.658;2023-09-19T04:56:00;98613.69;;;15.57;100.00
76732;BME280;65656;51.130;13.658;2023-09-19T05:00:01;98616.72;;;15.75;100.00
76732;BME280;65656;51.130;13.658;2023-09-19T05:04:04;98614.56;;;15.72;100.00
76732;BME280;65656;51.130;13.658;2023-09-19T05:08:06;98623.97;;;15.71;100.00
76732;BME280;65656;51.130;13.658;2023-09-19T05:12:08;98637.69;;;15.76;100.00
76732;BME280;65656;51.130;13.658;2023-09-19T05:16:09;98639.94;;;15.74;100.00
76732;BME280;65656;51.130;13.658;2023-09-19T05:20:12;98643.03;;;15.72;100.00
76732;BME280;65656;51.130;13.658;2023-09-19T05:24:14;98642.16;;;15.72;100.00
76732;BME280;65656;51.130;13.658;2023-09-19T05:28:16;98641.72;;;15.83;100.00
76732;BME280;65656;51.130;13.658;2023-09-19T05:32:17;98636.31;;;15.92;100.00
76732;BME280;65656;51.130;13.658;2023-09-19T05:36:20;98641.91;;;15.87;100.00
76732;BME280;65656;51.130;13.658;2023-09-19T05:40:22;98645.19;;;15.89;100.00
76732;BME280;65656;51.130;13.658;2023-09-19T05:44:23;98655.69;;;15.73;100.00
76732;BME280;65656;51.130;13.658;2023-09-19T05:48:25;98659.00;;;15.89;100.00
76732;BME280;65656;51.130;13.658;2023-09-19T05:52:27;98660.66;;;15.90;100.00
76732;BME280;65656;51.130;13.658;2023-09-19T05:56:29;98665.56;;;15.93;100.00
76732;BME280;65656;51.130;13.658;2023-09-19T06:00:31;98676.56;;;15.79;100.00
76732;BME280;65656;51.130;13.658;2023-09-19T06:04:32;98670.88;;;15.90;100.00
76732;BME280;65656;51.130;13.658;2023-09-19T06:08:35;98677.47;;;16.07;100.00
76732;BME280;65656;51.130;13.658;2023-09-19T06:12:38;98691.91;;;16.04;100.00
76732;BME280;65656;51.130;13.658;2023-09-19T06:16:39;98690.16;;;16.08;100.00
76732;BME280;65656;51.130;13.658;2023-09-19T06:20:41;98695.69;;;16.08;100.00
76732;BME280;65656;51.130;13.658;2023-09-19T06:24:44;98698.38;;;16.13;100.00
76732;BME280;65656;51.130;13.658;2023-09-19T06:28:45;98693.25;;;16.21;100.00
76732;BME280;65656;51.130;13.658;2023-09-19T06:32:47;98701.03;;;16.19;100.00
76732;BME280;65656;51.130;13.658;2023-09-19T06:36:49;98703.69;;;16.24;100.00
76732;BME280;65656;51.130;13.658;2023-09-19T06:40:52;98714.16;;;16.40;100.00
76732;BME280;65656;51.130;13.658;2023-09-19T06:44:54;98730.16;;;16.43;100.00
76732;BME280;65656;51.130;13.658;2023-09-19T06:48:56;98720.41;;;16.46;100.00
76732;BME280;65656;51.130;13.658;2023-09-19T06:52:57;98729.38;;;16.70;100.00
76732;BME280;65656;51.130;13.658;2023-09-19T06:57:01;98740.84;;;16.78;100.00
76732;BME280;65656;51.130;13.658;2023-09-19T07:01:02;98740.13;;;17.13;100.00
76732;BME280;65656;51.130;13.658;2023-09-19T07:05:04;98743.88;;;17.17;100.00
76732;BME280;65656;51.130;13.658;2023-09-19T07:09:06;98759.66;;;17.31;98.10
76732;BME280;65656;51.130;13.658;2023-09-19T07:13:09;98764.81;;;17.23;100.00
76732;BME280;65656;51.130;13.658;2023-09-19T07:17:10;98769.50;;;17.37;98.99
76732;BME280;65656;51.130;13.658;2023-09-19T07:21:12;98771.16;;;17.38;97.68
76732;BME280;65656;51.130;13.658;2023-09-19T07:25:13;98787.03;;;17.46;94.49
76732;BME280;65656;51.130;13.658;2023-09-19T07:29:16;98787.59;;;17.57;92.20
76732;BME280;65656;51.130;13.658;2023-09-19T07:33:18;98798.75;;;17.65;88.87
76732;BME280;65656;51.130;13.658;2023-09-19T07:37:19;98787.69;;;17.65;86.04
76732;BME280;65656;51.130;13.658;2023-09-19T07:41:21;98790.66;;;17.83;84.27
76732;BME280;65656;51.130;13.658;2023-09-19T07:45:24;98788.72;;;17.69;79.83
76732;BME280;65656;51.130;13.658;2023-09-19T07:49:25;98784.31;;;17.68;78.18
76732;BME280;65656;51.130;13.658;2023-09-19T07:53:27;98796.31;;;17.77;77.26
76732;BME280;65656;51.130;13.658;2023-09-19T07:57:28;98798.16;;;17.68;76.77
76732;BME280;65656;51.130;13.658;2023-09-19T08:01:31;98800.22;;;17.76;77.04
76732;BME280;65656;51.130;13.658;2023-09-19T08:05:33;98810.66;;;17.79;73.94
76732;BME280;65656;51.130;13.658;2023-09-19T08:09:35;98814.03;;;17.90;73.69
76732;BME280;65656;51.130;13.658;2023-09-19T08:13:36;98808.59;;;17.85;73.26
76732;BME280;65656;51.130;13.658;2023-09-19T08:17:40;98825.63;;;17.92;73.17
76732;BME280;65656;51.130;13.658;2023-09-19T08:21:41;98825.31;;;18.16;77.33
76732;BME280;65656;51.130;13.658;2023-09-19T08:25:43;98831.03;;;18.20;74.25
76732;BME280;65656;51.130;13.658;2023-09-19T08:29:46;98839.81;;;18.35;75.00
76732;BME280;65656;51.130;13.658;2023-09-19T08:33:50;98846.47;;;18.57;73.43
76732;BME280;65656;51.130;13.658;2023-09-19T08:37:51;98849.91;;;18.54;72.22
76732;BME280;65656;51.130;13.658;2023-09-19T08:41:57;98847.94;;;18.54;71.65
76732;BME280;65656;51.130;13.658;2023-09-19T08:46:05;98841.06;;;18.74;71.03
76732;BME280;65656;51.130;13.658;2023-09-19T08:50:19;98845.56;;;18.61;70.65
76732;BME280;65656;51.130;13.658;2023-09-19T08:54:22;98851.56;;;18.77;70.06
76732;BME280;65656;51.130;13.658;2023-09-19T08:58:26;98869.28;;;18.99;70.53
76732;BME280;65656;51.130;13.658;2023-09-19T09:02:28;98857.63;;;19.19;70.41
76732;BME280;65656;51.130;13.658;2023-09-19T09:06:34;98869.00;;;19.48;66.07
76732;BME280;65656;51.130;13.658;2023-09-19T09:10:35;98863.34;;;19.62;64.39
76732;BME280;65656;51.130;13.658;2023-09-19T09:14:38;98866.84;;;19.94;65.76
76732;BME280;65656;51.130;13.658;2023-09-19T09:18:40;98866.84;;;19.94;64.44
76732;BME280;65656;51.130;13.658;2023-09-19T09:22:51;98849.00;;;19.86;64.06
76732;BME280;65656;51.130;13.658;2023-09-19T09:26:53;98863.72;;;19.95;68.55
76732;BME280;65656;51.130;13.658;2023-09-19T09:30:55;98860.75;;;19.83;63.11
76732;BME280;65656;51.130;13.658;2023-09-19T09:34:57;98875.94;;;19.68;62.67
76732;BME280;65656;51.130;13.658;2023-09-19T09:39:04;98866.63;;;19.73;62.42
76732;BME280;65656;51.130;13.658;2023-09-19T09:43:25;98884.50;;;19.41;62.85
76732;BME280;65656;51.130;13.658;2023-09-19T09:47:41;98861.59;;;19.35;63.34
76732;BME280;65656;51.130;13.658;2023-09-19T09:51:44;98872.00;;;19.21;64.77
76732;BME280;65656;51.130;13.658;2023-09-19T09:56:01;98870.28;;;19.03;67.22
76732;BME280;65656;51.130;13.658;2023-09-19T10:00:03;98867.44;;;19.25;65.62
76732;BME280;65656;51.130;13.658;2023-09-19T10:04:05;98878.81;;;19.46;64.74
76732;BME280;65656;51.130;13.658;2023-09-19T10:08:10;98879.34;;;19.57;64.46
76732;BME280;65656;51.130;13.658;2023-09-19T10:12:16;98872.44;;;19.45;63.57
76732;BME280;65656;51.130;13.658;2023-09-19T10:16:17;98875.81;;;19.99;63.72
76732;BME280;65656;51.130;13.658;2023-09-19T10:20:20;98876.34;;;19.93;61.95
76732;BME280;65656;51.130;13.658;2023-09-19T10:24:22;98872.91;;;20.39;62.36
76732;BME280;65656;51.130;13.658;2023-09-19T10:28:27;98864.91;;;20.64;59.11
76732;BME280;65656;51.130;13.658;2023-09-19T10:32:29;98875.50;;;20.79;60.26
76732;BME280;65656;51.130;13.658;2023-09-19T10:36:33;98877.81;;;20.59;56.48
76732;BME280;65656;51.130;13.658;2023-09-19T10:40:35;98870.59;;;20.76;58.39
76732;BME280;65656;51.130;13.658;2023-09-19T10:44:41;98873.88;;;20.78;55.31
76732;BME280;65656;51.130;13.658;2023-09-19T10:48:44;98869.25;;;20.91;56.49
76732;BME280;65656;51.130;13.658;2023-09-19T10:52:46;98875.69;;;20.74;55.65
76732;BME280;65656;51.130;13.658;2023-09-19T10:56:49;98862.91;;;21.28;54.60
76732;BME280;65656;51.130;13.658;2023-09-19T11:00:54;98870.84;;;21.56;53.75
76732;BME280;65656;51.130;13.658;2023-09-19T11:05:10;98867.16;;;21.26;55.65
76732;BME280;65656;51.130;13.658;2023-09-19T11:09:12;98868.78;;;21.35;54.14
76732;BME280;65656;51.130;13.658;2023-09-19T11:13:24;98875.34;;;21.31;51.26
76732;BME280;65656;51.130;13.658;2023-09-19T11:17:36;98880.53;;;21.03;51.41
76732;BME280;65656;51.130;13.658;2023-09-19T11:21:54;98867.38;;;21.12;50.13
76732;BME280;65656;51.130;13.658;2023-09-19T11:25:55;98864.63;;;21.03;51.57
76732;BME280;65656;51.130;13.658;2023-09-19T11:30:27;98869.28;;;21.37;53.07
76732;BME280;65656;51.130;13.658;2023-09-19T11:34:40;98881.81;;;21.52;54.89
76732;BME280;65656;51.130;13.658;2023-09-19T11:38:58;98887.22;;;21.10;54.95
76732;BME280;65656;51.130;13.658;2023-09-19T11:43:32;98891.81;;;21.06;53.94
76732;BME280;65656;51.130;13.658;2023-09-19T11:47:34;98885.03;;;20.78;54.63
76732;BME280;65656;51.130;13.658;2023-09-19T11:51:41;98881.03;;;20.96;54.38
76732;BME280;65656;51.130;13.658;2023-09-19T11:55:43;98879.31;;;21.30;52.98
76732;BME280;65656;51.130;13.658;2023-09-19T11:59:45;98889.47;;;21.26;51.77
76732;BME280;65656;51.130;13.658;2023-09-19T12:03:52;98886.13;;;20.94;52.76
76732;BME280;65656;51.130;13.658;2023-09-19T12:07:56;98892.81;;;20.93;51.25
76732;BME280;65656;51.130;13.658;2023-09-19T12:11:57;98879.59;;;21.37;51.17
76732;BME280;65656;51.130;13.658;2023-09-19T12:15:59;98878.19;;;21.60;50.15
76732;BME280;65656;51.130;13.658;2023-09-19T12:20:00;98871.31;;;22.08;49.79
76732;BME280;65656;51.130;13.658;2023-09-19T12:24:07;98883.53;;;21.36;49.91
76732;BME280;65656;51.130;13.658;2023-09-19T12:28:09;98889.78;;;21.33;48.66
76732;BME280;65656;51.130;13.658;2023-09-19T12:32:11;98882.69;;;21.74;48.90
76732;BME280;65656;51.130;13.658;2023-09-19T12:36:22;98889.81;;;21.15;49.51
76732;BME280;65656;51.130;13.658;2023-09-19T12:40:26;98887.31;;;21.69;49.64
76732;BME280;65656;51.130;13.658;2023-09-19T12:44:30;98891.56;;;21.96;49.58
76732;BME280;65656;51.130;13.658;2023-09-19T12:48:32;98872.22;;;22.75;47.31
76732;BME280;65656;51.130;13.658;2023-09-19T12:52:35;98874.81;;;23.25;46.83
76732;BME280;65656;51.130;13.658;2023-09-19T12:56:42;98874.13;;;22.29;46.73
76732;BME280;65656;51.130;13.658;2023-09-19T13:00:45;98868.03;;;24.12;45.38
76732;BME280;65656;51.130;13.658;2023-09-19T13:04:52;98877.88;;;24.74;42.57
76732;BME280;65656;51.130;13.658;2023-09-19T13:09:07;98873.00;;;23.90;42.02
76732;BME280;65656;51.130;13.658;2023-09-19T13:13:23;98883.47;;;23.45;42.60
76732;BME280;65656;51.130;13.658;2023-09-19T13:17:42;98867.47;;;21.92;45.82
76732;BME280;65656;51.130;13.658;2023-09-19T13:21:44;98858.63;;;22.73;43.26
76732;BME280;65656;51.130;13.658;2023-09-19T13:25:45;98866.63;;;23.08;43.89
76732;BME280;65656;51.130;13.658;2023-09-19T13:29:48;98861.84;;;22.96;44.05
76732;BME280;65656;51.130;13.658;2023-09-19T13:33:50;98872.63;;;22.32;44.91
76732;BME280;65656;51.130;13.658;2023-09-19T13:37:51;98870.63;;;21.90;46.01
76732;BME280;65656;51.130;13.658;2023-09-19T13:41:53;98866.41;;;22.47;45.48
76732;BME280;65656;51.130;13.658;2023-09-19T13:45:56;98871.41;;;22.20;46.23
76732;BME280;65656;51.130;13.658;2023-09-19T13:49:58;98868.16;;;21.30;47.47
76732;BME280;65656;51.130;13.658;2023-09-19T13:54:00;98869.84;;;22.02;46.78
76732;BME280;65656;51.130;13.658;2023-09-19T13:58:01;98868.28;;;23.21;43.88
76732;BME280;65656;51.130;13.658;2023-09-19T14:02:04;98873.94;;;22.34;44.76
76732;BME280;65656;51.130;13.658;2023-09-19T14:06:06;98868.41;;;22.25;46.36
76732;BME280;65656;51.130;13.658;2023-09-19T14:10:08;98862.97;;;22.62;45.61
76732;BME280;65656;51.130;13.658;2023-09-19T14:14:10;98866.25;;;21.81;47.49
76732;BME280;65656;51.130;13.658;2023-09-19T14:18:13;98868.34;;;21.16;48.52
76732;BME280;65656;51.130;13.658;2023-09-19T14:22:14;98855.69;;;22.37;46.68
76732;BME280;65656;51.130;13.658;2023-09-19T14:26:16;98849.19;;;23.48;44.39
76732;BME280;65656;51.130;13.658;2023-09-19T14:30:17;98858.81;;;23.01;44.42
76732;BME280;65656;51.130;13.658;2023-09-19T14:34:20;98849.94;;;21.91;46.88
76732;BME280;65656;51.130;13.658;2023-09-19T14:38:22;98841.22;;;21.93;47.62
76732;BME280;65656;51.130;13.658;2023-09-19T14:42:23;98844.88;;;21.26;48.60
76732;BME280;65656;51.130;13.658;2023-09-19T14:46:25;98844.44;;;21.53;48.63
76732;BME280;65656;51.130;13.658;2023-09-19T14:50:28;98850.28;;;21.60;48.09
76732;BME280;65656;51.130;13.658;2023-09-19T14:54:29;98850.25;;;20.84;49.23
76732;BME280;65656;51.130;13.658;2023-09-19T14:58:31;98842.94;;;20.71;49.00
76732;BME280;65656;51.130;13.658;2023-09-19T15:02:33;98834.59;;;21.18;49.64
76732;BME280;65656;51.130;13.658;2023-09-19T15:06:36;98837.63;;;21.63;48.31
76732;BME280;65656;51.130;13.658;2023-09-19T15:10:38;98829.63;;;21.61;47.40
76732;BME280;65656;51.130;13.658;2023-09-19T15:14:39;98828.38;;;21.50;47.32
76732;BME280;65656;51.130;13.658;2023-09-19T15:18:43;98830.97;;;21.55;45.78
76732;BME280;65656;51.130;13.658;2023-09-19T15:22:46;98830.25;;;21.37;45.69
76732;BME280;65656;51.130;13.658;2023-09-19T15:26:48;98824.56;;;21.34;47.63
76732;BME280;65656;51.130;13.658;2023-09-19T15:30:49;98823.03;;;20.98;46.77
76732;BME280;65656;51.130;13.658;2023-09-19T15:34:53;98822.41;;;20.84;48.34
76732;BME280;65656;51.130;13.658;2023-09-19T15:39:00;98826.19;;;20.88;47.45
76732;BME280;65656;51.130;13.658;2023-09-19T15:43:02;98826.41;;;20.66;45.06
76732;BME280;65656;51.130;13.658;2023-09-19T15:47:04;98826.53;;;20.69;44.88
76732;BME280;65656;51.130;13.658;2023-09-19T15:51:05;98816.91;;;20.67;45.24
76732;BME280;65656;51.130;13.658;2023-09-19T15:55:09;98826.56;;;20.61;45.67
76732;BME280;65656;51.130;13.658;2023-09-19T15:59:11;98814.00;;;20.54;45.83
76732;BME280;65656;51.130;13.658;2023-09-19T16:03:13;98817.59;;;20.29;46.21
76732;BME280;65656;51.130;13.658;2023-09-19T16:07:16;98814.97;;;19.98;47.83
76732;BME280;65656;51.130;13.658;2023-09-19T16:11:19;98817.28;;;20.04;47.96
76732;BME280;65656;51.130;13.658;2023-09-19T16:15:20;98824.81;;;19.78;48.85
76732;BME280;65656;51.130;13.658;2023-09-19T16:19:22;98824.25;;;19.59;49.15
76732;BME280;65656;51.130;13.658;2023-09-19T16:23:24;98824.59;;;19.57;50.00
76732;BME280;65656;51.130;13.658;2023-09-19T16:27:26;98829.19;;;19.22;51.05
76732;BME280;65656;51.130;13.658;2023-09-19T16:31:29;98833.00;;;19.35;48.95
76732;BME280;65656;51.130;13.658;2023-09-19T16:35:31;98825.66;;;19.30;48.43
76732;BME280;65656;51.130;13.658;2023-09-19T16:39:37;98838.47;;;19.09;48.57
76732;BME280;65656;51.130;13.658;2023-09-19T16:43:40;98832.63;;;18.79;49.73
76732;BME280;65656;51.130;13.658;2023-09-19T16:47:42;98850.53;;;18.73;49.70
76732;BME280;65656;51.130;13.658;2023-09-19T16:51:44;98849.13;;;18.62;49.67
76732;BME280;65656;51.130;13.658;2023-09-19T16:55:46;98866.97;;;18.25;51.55
76732;BME280;65656;51.130;13.658;2023-09-19T16:59:49;98859.94;;;17.83;55.05
76732;BME280;65656;51.130;13.658;2023-09-19T17:03:50;98863.63;;;17.64;55.00
76732;BME280;65656;51.130;13.658;2023-09-19T17:07:52;98860.34;;;17.35;55.82
76732;BME280;65656;51.130;13.658;2023-09-19T17:11:54;98862.63;;;17.05;58.76
76732;BME280;65656;51.130;13.658;2023-09-19T17:16:01;98869.78;;;16.92;57.00
76732;BME280;65656;51.130;13.658;2023-09-19T17:20:03;98876.75;;;16.90;58.51
76732;BME280;65656;51.130;13.658;2023-09-19T17:24:05;98879.09;;;16.64;58.23
76732;BME280;65656;51.130;13.658;2023-09-19T17:28:06;98888.22;;;16.64;60.58
76732;BME280;65656;51.130;13.658;2023-09-19T17:32:09;98888.66;;;16.39;61.99
76732;BME280;65656;51.130;13.658;2023-09-19T17:36:12;98889.00;;;16.19;61.04
76732;BME280;65656;51.130;13.658;2023-09-19T17:40:14;98884.28;;;16.19;60.73
76732;BME280;65656;51.130;13.658;2023-09-19T17:44:16;98886.28;;;16.13;59.49
76732;BME280;65656;51.130;13.658;2023-09-19T17:48:19;98896.38;;;16.23;59.16
76732;BME280;65656;51.130;13.658;2023-09-19T17:52:20;98896.66;;;16.03;59.56
76732;BME280;65656;51.130;13.658;2023-09-19T17:56:22;98909.88;;;15.87;60.06
76732;BME280;65656;51.130;13.658;2023-09-19T18:00:23;98911.59;;;15.64;61.24
76732;BME280;65656;51.130;13.658;2023-09-19T18:04:26;98914.63;;;15.63;61.25
76732;BME280;65656;51.130;13.658;2023-09-19T18:08:29;98920.38;;;15.66;59.83
76732;BME280;65656;51.130;13.658;2023-09-19T18:12:30;98926.72;;;15.67;58.64
76732;BME280;65656;51.130;13.658;2023-09-19T18:16:32;98929.78;;;15.65;60.10
76732;BME280;65656;51.130;13.658;2023-09-19T18:20:36;98945.13;;;15.47;58.88
76732;BME280;65656;51.130;13.658;2023-09-19T18:24:38;98945.91;;;15.29;61.39
76732;BME280;65656;51.130;13.658;2023-09-19T18:28:39;98956.03;;;15.10;60.60
76732;BME280;65656;51.130;13.658;2023-09-19T18:32:41;98958.22;;;15.13;63.73
76732;BME280;65656;51.130;13.658;2023-09-19T18:36:44;98953.78;;;14.88;65.33
76732;BME280;65656;51.130;13.658;2023-09-19T18:40:46;98958.03;;;14.70;65.02
76732;BME280;65656;51.130;13.658;2023-09-19T18:44:47;98959.53;;;14.57;66.10
76732;BME280;65656;51.130;13.658;2023-09-19T18:48:51;98973.19;;;14.33;68.75
76732;BME280;65656;51.130;13.658;2023-09-19T18:52:54;98973.59;;;14.11;68.91
76732;BME280;65656;51.130;13.658;2023-09-19T18:56:56;98968.38;;;14.05;70.48
76732;BME280;65656;51.130;13.658;2023-09-19T19:01:02;98967.06;;;13.92;70.12
76732;BME280;65656;51.130;13.658;2023-09-19T19:05:04;98972.34;;;13.83;71.74
76732;BME280;65656;51.130;13.658;2023-09-19T19:09:07;98977.06;;;13.78;71.69
76732;BME280;65656;51.130;13.658;2023-09-19T19:13:08;98971.22;;;13.89;73.33
76732;BME280;65656;51.130;13.658;2023-09-19T19:17:10;98979.47;;;13.94;72.22
76732;BME280;65656;51.130;13.658;2023-09-19T19:21:12;98971.81;;;13.86;74.58
76732;BME280;65656;51.130;13.658;2023-09-19T19:25:15;98981.47;;;13.74;74.84
76732;BME280;65656;51.130;13.658;2023-09-19T19:29:17;98983.47;;;13.63;74.92
76732;BME280;65656;51.130;13.658;2023-09-19T19:33:18;98985.41;;;13.57;73.74
76732;BME280;65656;51.130;13.658;2023-09-19T19:37:20;98985.38;;;13.62;74.09
76732;BME280;65656;51.130;13.658;2023-09-19T19:41:23;98989.75;;;13.74;75.16
76732;BME280;65656;51.130;13.658;2023-09-19T19:45:24;98988.97;;;13.63;76.73
76732;BME280;65656;51.130;13.658;2023-09-19T19:49:26;98986.22;;;13.58;76.58
76732;BME280;65656;51.130;13.658;2023-09-19T19:53:27;98992.31;;;13.50;76.20
76732;BME280;65656;51.130;13.658;2023-09-19T19:57:30;98991.19;;;13.51;76.90
76732;BME280;65656;51.130;13.658;2023-09-19T20:01:32;98991.72;;;13.58;78.19
76732;BME280;65656;51.130;13.658;2023-09-19T20:05:36;98987.56;;;13.65;77.83
76732;BME280;65656;51.130;13.658;2023-09-19T20:09:38;98996.16;;;13.49;79.87
76732;BME280;65656;51.130;13.658;2023-09-19T20:13:41;98992.00;;;13.51;78.32
76732;BME280;65656;51.130;13.658;2023-09-19T20:17:45;98988.16;;;13.57;80.06
76732;BME280;65656;51.130;13.658;2023-09-19T20:21:46;98991.47;;;13.54;79.34
76732;BME280;65656;51.130;13.658;2023-09-19T20:25:48;98987.38;;;13.47;79.03
76732;BME280;65656;51.130;13.658;2023-09-19T20:29:51;98983.47;;;13.53;78.95
76732;BME280;65656;51.130;13.658;2023-09-19T20:33:53;98989.00;;;13.48;79.64
76732;BME280;65656;51.130;13.658;2023-09-19T20:37:54;98978.25;;;13.46;79.15
76732;BME280;65656;51.130;13.658;2023-09-19T20:41:56;98976.03;;;13.53;79.44
76732;BME280;65656;51.130;13.658;2023-09-19T20:46:02;98976.91;;;13.49;81.56
76732;BME280;65656;51.130;13.658;2023-09-19T20:50:05;98982.72;;;13.32;81.02
76732;BME280;65656;51.130;13.658;2023-09-19T20:54:06;98968.66;;;13.44;81.20
76732;BME280;65656;51.130;13.658;2023-09-19T20:58:08;98978.00;;;13.37;81.71
76732;BME280;65656;51.130;13.658;2023-09-19T21:02:11;98973.38;;;13.23;83.30
76732;BME280;65656;51.130;13.658;2023-09-19T21:06:13;98972.53;;;13.12;83.30
76732;BME280;65656;51.130;13.658;2023-09-19T21:10:15;98978.34;;;13.00;84.30
76732;BME280;65656;51.130;13.658;2023-09-19T21:14:17;98977.53;;;12.85;86.01
76732;BME280;65656;51.130;13.658;2023-09-19T21:18:20;98975.34;;;12.76;86.59